Südanflug-Wetter

Südanflüge sind sowohl am Euroairport Basel-Mulhouse-Freiburg als auch am Flughafen Unique Zürich ein Thema für die Anwohner. In Basel hängen Südanflüge von den Windverhältnissen ab. Für den Euroairport Basel-Mulhouse-Freiburg bereitet MeteoNews deshalb aktuelle Winddaten auf, die direkt auf der Homepage des Flughafens eingebunden werden. Angaben zum Flughafen Zürich finden Sie hier.

In Zürich sind Südanflüge auf die Piste 34 möglich, wenn die horizontale Sichtweite mindestens 750 m beträgt und die Wolkenuntergrenze im Anflugsektor nicht tiefer als 300 Fuss (knapp 100 m) liegt (diese Werte gelten seit dem 1. November 2004).

Prognose für Südanflüge

Am Dienstag sind Südanflüge möglich.
(Prognose ohne Gewähr. Die Vorhersage wird mehrmals täglich aktualisiert. Verantwortlicher Meteorologe: Nicola Möckli, 21.08.2018 06:09)

Analyse der letzten METAR-Messungen

Unser Tool wertet die letzten 20 offiziellen Wettermeldungen (METAR) des Flughafens Zürich aus und entscheidet aufgrund der beiden Werte für Sichtweite und Ceiling (Hauptwolkenuntergrenze), ob Südanflüge nach obiger Definition möglich wären. Allerdings repräsentiert der Wert für die Wolkenuntergrenze in der METAR-Meldung nicht die Bewölkung im Anflugsektor sondern generell um den Flughafen. Da über die Bewölkung im Anflugsektor kurzfristig aufgrund von Beobachtungen des Towers und von Piloten entschieden wird, kann die Angabe unseres Tools in gewissen Fällen von den realen Entscheiden der Flugsicherung abweichen.

Südanflüge Datum Uhrzeit Sichtweite Ceiling Vollständige METAR-Meldung
möglich 2018-08-21 07:50:00 > 10 km LSZH 210550Z 36003KT CAVOK 18/14 Q1020 NOSIG=
möglich 2018-08-21 07:20:00 > 10 km LSZH 210520Z VRB02KT CAVOK 16/14 Q1020 NOSIG
möglich 2018-08-21 06:50:00 > 10 km LSZH 210450Z 00000KT CAVOK 15/13 Q1020 NOSIG
möglich 2018-08-21 06:20:00 > 10 km LSZH 210420Z 00000KT CAVOK 16/14 Q1020 NOSIG
möglich 2018-08-21 05:50:00 > 10 km LSZH 210350Z 00000KT CAVOK 16/14 Q1020 NOSIG
möglich 2018-08-21 05:20:00 > 10 km LSZH 210320Z 00000KT CAVOK 16/14 Q1020 NOSIG
möglich 2018-08-21 04:50:00 > 10 km LSZH 210250Z 02002KT CAVOK 17/14 Q1020 NOSIG
möglich 2018-08-21 04:20:00 > 10 km LSZH 210220Z 02003KT CAVOK 18/14 Q1020 NOSIG
möglich 2018-08-21 03:50:00 > 10 km LSZH 210150Z 35002KT CAVOK 18/14 Q1020 NOSIG
möglich 2018-08-21 03:20:00 > 10 km LSZH 210120Z 33006KT CAVOK 18/14 Q1020 NOSIG
möglich 2018-08-21 02:50:00 > 10 km LSZH 210050Z 33006KT CAVOK 18/14 Q1020 NOSIG
möglich 2018-08-21 01:50:00 > 10 km LSZH 202350Z 28005KT CAVOK 19/14 Q1020 NOSIG
möglich 2018-08-21 01:20:00 > 10 km LSZH 202320Z 30006KT CAVOK 19/14 Q1020 NOSIG
möglich 2018-08-21 00:50:00 > 10 km LSZH 202250Z 31005KT CAVOK 19/13 Q1020 NOSIG
möglich 2018-08-21 00:20:00 > 10 km LSZH 202220Z 31006KT CAVOK 20/13 Q1020 NOSIG
möglich 2018-08-20 23:50:00 > 10 km LSZH 202150Z 32006KT CAVOK 21/13 Q1020 NOSIG
möglich 2018-08-20 23:20:00 > 10 km LSZH 202120Z 33006KT 300V020 CAVOK 23/13 Q1020 NOSIG
möglich 2018-08-20 22:50:00 > 10 km LSZH 202050Z 34005KT 9999 FEW070 22/13 Q1020 NOSIG
möglich 2018-08-20 22:20:00 > 10 km LSZH 202020Z 33007KT 9999 FEW070 22/13 Q1020 NOSIG
möglich 2018-08-20 21:50:00 > 10 km LSZH 201950Z 32007KT 9999 FEW070 22/13 Q1019 NOSIG